createdAt,value
2022-12-01T00:01:02.008Z,102868.16
2022-12-01T00:03:32.094Z,102871.59
2022-12-01T00:06:07.040Z,102864.66
2022-12-01T00:08:34.080Z,102861.97
2022-12-01T00:11:13.994Z,102866.25
2022-12-01T00:13:40.529Z,102867.78
2022-12-01T00:16:15.178Z,102869.34
2022-12-01T00:18:41.702Z,102864.69
2022-12-01T00:21:15.784Z,102866.66
2022-12-01T00:23:47.399Z,102872.06
2022-12-01T00:26:14.779Z,102869.75
2022-12-01T00:28:41.323Z,102865.09
2022-12-01T00:31:12.093Z,102867.03
2022-12-01T00:33:39.467Z,102863.94
2022-12-01T00:36:07.077Z,102865.50
2022-12-01T00:38:33.939Z,102870.16
2022-12-01T00:41:00.451Z,102865.13
2022-12-01T00:43:26.944Z,102866.66
2022-12-01T00:45:53.550Z,102873.25
2022-12-01T00:48:20.097Z,102871.31
2022-12-01T00:50:47.144Z,102867.47
2022-12-01T00:53:13.593Z,102873.63
2022-12-01T00:55:40.441Z,102867.44
2022-12-01T00:58:07.610Z,102870.53
2022-12-01T01:00:34.604Z,102872.50
2022-12-01T01:03:01.481Z,102872.50
2022-12-01T01:05:27.962Z,102870.94
2022-12-01T01:07:54.463Z,102870.94
2022-12-01T01:10:21.069Z,102870.94
2022-12-01T01:12:47.486Z,102869.38
2022-12-01T01:15:13.974Z,102873.66
2022-12-01T01:17:40.460Z,102873.63
2022-12-01T01:20:07.730Z,102880.22
2022-12-01T01:22:35.285Z,102875.19
2022-12-01T01:25:01.990Z,102883.31
2022-12-01T01:27:28.410Z,102873.28
2022-12-01T01:29:54.830Z,102882.91
2022-12-01T01:32:21.262Z,102883.34
2022-12-01T01:34:47.685Z,102881.75
2022-12-01T01:37:15.072Z,102888.34
2022-12-01T01:39:41.551Z,102879.09
2022-12-01T01:42:13.333Z,102887.56
2022-12-01T01:44:54.364Z,102891.03
2022-12-01T01:47:29.272Z,102890.66
2022-12-01T01:49:57.853Z,102891.06
2022-12-01T01:52:24.894Z,102896.06
2022-12-01T01:54:54.888Z,102888.72
2022-12-01T01:57:29.628Z,102888.72
2022-12-01T02:00:02.249Z,102896.44
2022-12-01T02:02:28.828Z,102893.75
2022-12-01T02:05:01.952Z,102902.25
2022-12-01T02:07:28.938Z,102894.91
2022-12-01T02:09:55.849Z,102903.78
2022-12-01T02:12:43.798Z,102906.13
2022-12-01T02:15:41.167Z,102905.34
2022-12-01T02:18:28.998Z,102904.94
2022-12-01T02:21:10.587Z,102907.66
2022-12-01T02:23:45.932Z,102899.16
2022-12-01T02:26:27.650Z,102909.59
2022-12-01T02:29:19.294Z,102921.56
2022-12-01T02:32:09.651Z,102915.00
2022-12-01T02:35:14.479Z,102915.00
2022-12-01T02:37:49.296Z,102914.63
2022-12-01T02:40:26.916Z,102917.69
2022-12-01T02:43:03.721Z,102919.22
2022-12-01T02:45:56.231Z,102912.66
2022-12-01T02:48:33.098Z,102917.28
2022-12-01T02:51:18.530Z,102912.25
2022-12-01T02:53:45.164Z,102915.75
2022-12-01T02:56:13.521Z,102915.38
2022-12-01T02:58:40.022Z,102912.25
2022-12-01T03:01:34.614Z,102910.31
2022-12-01T03:04:03.770Z,102905.28
2022-12-01T03:06:39.380Z,102907.22
2022-12-01T03:09:15.634Z,102905.28
2022-12-01T03:11:52.340Z,102896.78
2022-12-01T03:14:36.866Z,102906.06
2022-12-01T03:17:10.955Z,102912.25
2022-12-01T03:19:43.829Z,102899.47
2022-12-01T03:22:24.850Z,102902.19
2022-12-01T03:24:54.549Z,102906.84
2022-12-01T03:27:25.771Z,102902.56
2022-12-01T03:29:55.448Z,102904.16
2022-12-01T03:32:27.606Z,102901.03
2022-12-01T03:35:04.660Z,102894.06
2022-12-01T03:37:45.386Z,102901.03
2022-12-01T03:40:17.765Z,102897.19
2022-12-01T03:42:50.193Z,102898.31
2022-12-01T03:45:31.207Z,102889.41
2022-12-01T03:47:57.753Z,102898.69
2022-12-01T03:50:29.289Z,102906.81
2022-12-01T03:53:19.308Z,102905.25
2022-12-01T03:55:52.274Z,102905.63
2022-12-01T03:58:22.880Z,102905.63
2022-12-01T04:00:53.292Z,102901.75
2022-12-01T04:03:22.871Z,102903.31
2022-12-01T04:05:49.424Z,102903.31
2022-12-01T04:08:15.945Z,102912.59
2022-12-01T04:10:42.940Z,102911.41
2022-12-01T04:13:16.631Z,102908.72
2022-12-01T04:15:43.594Z,102913.34
2022-12-01T04:18:10.138Z,102915.66
2022-12-01T04:20:36.625Z,102913.72
2022-12-01T04:23:03.058Z,102917.97
2022-12-01T04:25:29.496Z,102913.38
2022-12-01T04:27:55.940Z,102910.25
2022-12-01T04:30:22.445Z,102907.94
2022-12-01T04:32:48.866Z,102902.53
2022-12-01T04:35:15.364Z,102911.00
2022-12-01T04:37:41.785Z,102908.31
2022-12-01T04:40:08.899Z,102909.47
2022-12-01T04:42:35.536Z,102909.47
2022-12-01T04:45:02.049Z,102903.25
2022-12-01T04:47:28.513Z,102902.09
2022-12-01T04:49:54.958Z,102899.41
2022-12-01T04:52:21.397Z,102906.75
2022-12-01T04:54:47.839Z,102901.72
2022-12-01T04:57:14.314Z,102912.16
2022-12-01T04:59:40.808Z,102910.59
2022-12-01T05:02:07.605Z,102909.81
2022-12-01T05:04:38.394Z,102913.28
2022-12-01T05:07:05.127Z,102914.06
2022-12-01T05:09:31.549Z,102912.50
2022-12-01T05:11:58.019Z,102911.75
2022-12-01T05:14:24.441Z,102914.44
2022-12-01T05:16:51.024Z,102914.81
2022-12-01T05:19:36.267Z,102912.13
2022-12-01T05:22:02.778Z,102918.28
2022-12-01T05:24:29.317Z,102915.97
2022-12-01T05:26:55.803Z,102920.22
2022-12-01T05:29:22.246Z,102920.59
2022-12-01T05:31:48.728Z,102924.06
2022-12-01T05:34:15.335Z,102923.31
2022-12-01T05:36:41.971Z,102921.34
2022-12-01T05:39:08.477Z,102920.97
2022-12-01T05:41:34.949Z,102923.66
2022-12-01T05:44:01.473Z,102926.38
2022-12-01T05:46:28.006Z,102924.06
2022-12-01T05:48:54.553Z,102919.06
2022-12-01T05:51:21.065Z,102927.19
2022-12-01T05:53:48.332Z,102931.06
2022-12-01T05:56:14.818Z,102925.69
2022-12-01T05:58:41.290Z,102933.44
2022-12-01T06:01:07.793Z,102933.47
2022-12-01T06:03:34.234Z,102931.19
2022-12-01T06:06:00.940Z,102940.50
2022-12-01T06:08:27.812Z,102936.28
2022-12-01T06:10:54.364Z,102936.69
2022-12-01T06:13:20.858Z,102944.41
2022-12-01T06:15:59.413Z,102948.69
2022-12-01T06:18:27.273Z,102947.53
2022-12-01T06:20:53.711Z,102949.91
2022-12-01T06:23:20.605Z,102949.09
2022-12-01T06:25:47.120Z,102943.28
2022-12-01T06:28:13.858Z,102953.75
2022-12-01T06:30:40.302Z,102953.75
2022-12-01T06:33:07.264Z,102958.75
2022-12-01T06:35:34.426Z,102965.34
2022-12-01T06:38:00.985Z,102965.34
2022-12-01T06:40:27.518Z,102971.91
2022-12-01T06:42:54.108Z,102977.28
2022-12-01T06:45:20.629Z,102970.69
2022-12-01T06:47:48.392Z,102982.31
2022-12-01T06:52:59.391Z,102979.94
2022-12-01T06:55:26.037Z,102974.53
2022-12-01T06:57:52.644Z,102981.47
2022-12-01T07:00:19.717Z,102984.56
2022-12-01T07:02:46.370Z,102983.00
2022-12-01T07:05:12.909Z,102988.44
2022-12-01T07:07:39.856Z,102980.69
2022-12-01T07:10:07.791Z,102986.88
2022-12-01T07:12:34.273Z,102984.50
2022-12-01T07:15:01.622Z,102993.84
2022-12-01T07:17:29.804Z,102988.41
2022-12-01T07:19:56.885Z,102989.19
2022-12-01T07:22:25.920Z,102989.94
2022-12-01T07:24:56.027Z,102989.53
2022-12-01T07:27:22.635Z,102996.91
2022-12-01T07:29:49.326Z,102994.19
2022-12-01T07:32:15.995Z,102998.09
2022-12-01T07:34:42.503Z,103001.59
2022-12-01T07:37:08.965Z,102994.19
2022-12-01T07:39:35.548Z,103007.00
2022-12-01T07:42:02.863Z,103004.31
2022-12-01T07:44:29.307Z,102994.19
2022-12-01T07:46:55.910Z,103000.81
2022-12-01T07:49:22.420Z,103007.75
2022-12-01T07:51:48.966Z,103000.38
2022-12-01T07:54:16.848Z,103013.19
2022-12-01T07:56:43.421Z,103017.47
2022-12-01T07:59:09.967Z,103017.47
2022-12-01T08:01:39.240Z,103013.97
2022-12-01T08:04:09.449Z,103011.28
2022-12-01T08:06:36.139Z,103014.75
2022-12-01T08:09:02.669Z,103014.38
2022-12-01T08:11:29.905Z,103020.91
2022-12-01T08:13:56.859Z,103026.75
2022-12-01T08:16:24.693Z,103023.22
2022-12-01T08:18:51.741Z,103025.91
2022-12-01T08:21:21.460Z,103033.25
2022-12-01T08:23:48.740Z,103028.19
2022-12-01T08:26:17.621Z,103024.66
2022-12-01T08:28:45.208Z,103039.34
2022-12-01T08:31:24.076Z,103033.50
2022-12-01T08:33:51.210Z,103029.19
2022-12-01T08:36:19.039Z,103035.38
2022-12-01T08:38:47.777Z,103035.34
2022-12-01T08:41:15.290Z,103031.03
2022-12-01T08:44:08.822Z,103037.22
2022-12-01T08:46:35.181Z,103037.56
2022-12-01T08:49:05.845Z,103039.81
2022-12-01T08:51:33.179Z,103042.16
2022-12-01T08:54:00.476Z,103053.00
2022-12-01T08:56:28.816Z,103040.94
2022-12-01T08:58:55.674Z,103047.53
2022-12-01T09:01:22.784Z,103050.19
2022-12-01T09:04:04.956Z,103048.63
2022-12-01T09:06:33.692Z,103052.09
2022-12-01T09:09:00.471Z,103051.25
2022-12-01T09:11:27.032Z,103045.81
2022-12-01T09:13:54.785Z,103051.25
2022-12-01T09:16:22.087Z,103056.69
2022-12-01T09:18:48.900Z,103062.56
2022-12-01T09:21:24.620Z,103060.63
2022-12-01T09:23:51.404Z,103057.13
2022-12-01T09:26:19.642Z,103063.75
2022-12-01T09:28:46.956Z,103054.41
2022-12-01T09:31:14.819Z,103059.81
2022-12-01T09:33:41.494Z,103057.84
2022-12-01T09:36:09.054Z,103061.34
2022-12-01T09:38:36.973Z,103054.69
2022-12-01T09:41:09.366Z,103054.69
2022-12-01T09:43:47.946Z,103052.78
2022-12-01T09:46:20.381Z,103055.50
2022-12-01T09:48:49.471Z,103055.94
2022-12-01T09:51:27.830Z,103059.06
2022-12-01T09:53:59.501Z,103053.63
2022-12-01T09:56:29.181Z,103053.22
2022-12-01T09:59:05.449Z,103049.38
2022-12-01T10:01:36.577Z,103049.78
2022-12-01T10:04:22.265Z,103042.41
2022-12-01T10:06:59.263Z,103050.59
2022-12-01T10:09:34.898Z,103045.56
2022-12-01T10:12:13.395Z,103040.53
2022-12-01T10:14:39.937Z,103041.72
2022-12-01T10:17:18.259Z,103039.84
2022-12-01T10:20:14.221Z,103042.97
2022-12-01T10:23:18.322Z,103038.72
2022-12-01T10:25:50.903Z,103030.19
2022-12-01T10:28:53.045Z,103031.78
2022-12-01T10:31:23.348Z,103031.41
2022-12-01T10:34:00.713Z,103029.16
2022-12-01T10:36:29.119Z,103036.13
2022-12-01T10:38:55.823Z,103028.75
2022-12-01T10:41:28.423Z,103031.13
2022-12-01T10:44:00.751Z,103029.13
2022-12-01T10:46:48.970Z,103032.63
2022-12-01T10:49:17.856Z,103023.72
2022-12-01T10:51:54.848Z,103021.75
2022-12-01T10:54:23.632Z,103021.38
2022-12-01T10:56:55.733Z,103024.09
2022-12-01T10:59:34.285Z,103030.72
2022-12-01T11:02:02.225Z,103009.38
2022-12-01T11:04:45.184Z,103012.09
2022-12-01T11:07:18.546Z,103020.66
2022-12-01T11:09:48.505Z,103010.94
2022-12-01T11:12:17.837Z,103013.66
2022-12-01T11:14:48.478Z,103010.94
2022-12-01T11:17:38.633Z,103005.91
2022-12-01T11:20:27.911Z,103005.16
2022-12-01T11:23:26.508Z,103002.03
2022-12-01T11:25:55.962Z,103011.75
2022-12-01T11:28:22.583Z,103000.91
2022-12-01T11:30:56.756Z,103004.38
2022-12-01T11:33:23.493Z,103005.94
2022-12-01T11:35:50.218Z,103005.16
2022-12-01T11:38:30.661Z,103004.41
2022-12-01T11:40:58.502Z,103000.16
2022-12-01T11:43:37.252Z,102999.72
2022-12-01T11:46:06.512Z,102993.16
2022-12-01T11:48:35.237Z,102997.81
2022-12-01T11:51:20.198Z,102990.03
2022-12-01T11:53:47.113Z,102992.03
2022-12-01T11:56:25.324Z,102996.69
2022-12-01T11:59:04.895Z,102986.97
2022-12-01T12:02:08.725Z,102988.53
2022-12-01T12:04:35.207Z,102993.59
2022-12-01T12:07:35.784Z,102987.00
2022-12-01T12:10:23.622Z,102992.06
2022-12-01T12:13:00.301Z,102992.06
2022-12-01T12:15:43.442Z,102985.81
2022-12-01T12:18:09.920Z,102989.34
2022-12-01T12:20:48.277Z,102981.22
2022-12-01T12:23:50.938Z,102988.97
2022-12-01T12:26:25.369Z,102980.47
2022-12-01T12:29:22.649Z,102989.00
2022-12-01T12:32:17.192Z,102982.81
2022-12-01T12:35:01.518Z,102985.13
2022-12-01T12:37:48.849Z,102984.34
2022-12-01T12:40:34.035Z,102985.13
2022-12-01T12:43:25.637Z,102984.75
2022-12-01T12:46:03.856Z,102981.31
2022-12-01T12:51:58.431Z,102978.59
2022-12-01T12:54:31.738Z,102983.59
2022-12-01T12:57:04.806Z,102982.03
2022-12-01T12:59:31.173Z,102984.00
2022-12-01T13:02:12.465Z,102990.19
2022-12-01T13:04:59.546Z,102982.81
2022-12-01T13:07:37.663Z,102978.94
2022-12-01T13:10:19.477Z,102978.94
2022-12-01T13:12:56.068Z,102979.34
2022-12-01T13:15:22.551Z,102978.94
2022-12-01T13:17:56.242Z,102982.03
2022-12-01T13:20:27.686Z,102975.88
2022-12-01T13:22:57.175Z,102984.00
2022-12-01T13:25:33.044Z,102981.66
2022-12-01T13:28:03.171Z,102974.66
2022-12-01T13:30:29.848Z,102979.69
2022-12-01T13:33:16.679Z,102987.84
2022-12-01T13:35:44.382Z,102985.13
2022-12-01T13:38:26.306Z,102983.59
2022-12-01T13:41:17.972Z,102984.00
2022-12-01T13:44:00.530Z,102984.38
2022-12-01T13:46:51.751Z,102988.25
2022-12-01T13:49:39.523Z,102980.91
2022-12-01T13:52:21.385Z,102987.16
2022-12-01T13:55:12.044Z,102990.25
2022-12-01T13:57:50.921Z,102986.75
2022-12-01T14:00:27.929Z,102989.88
2022-12-01T14:03:14.219Z,102984.44
2022-12-01T14:05:53.081Z,102983.66
2022-12-01T14:08:28.618Z,102986.81
2022-12-01T14:10:57.486Z,102984.09
2022-12-01T14:13:25.052Z,102986.81
2022-12-01T14:15:58.754Z,102985.22
2022-12-01T14:18:33.192Z,102981.34
2022-12-01T14:21:02.093Z,102987.91
2022-12-01T14:23:34.031Z,102977.47
2022-12-01T14:26:18.156Z,102987.53
2022-12-01T14:28:59.738Z,102984.03
2022-12-01T14:31:32.371Z,102987.94
2022-12-01T14:34:02.320Z,102984.44
2022-12-01T14:36:34.412Z,102984.78
2022-12-01T14:39:06.534Z,102982.06
2022-12-01T14:41:43.580Z,102989.81
2022-12-01T14:44:19.499Z,102988.25
2022-12-01T14:46:53.046Z,102985.91
2022-12-01T14:49:29.308Z,102983.22
2022-12-01T14:52:04.487Z,102990.19
2022-12-01T14:54:47.751Z,102985.53
2022-12-01T14:57:20.485Z,102983.22
2022-12-01T14:59:46.975Z,102984.00
2022-12-01T15:02:13.693Z,102982.41
2022-12-01T15:05:13.838Z,102987.06
2022-12-01T15:07:43.367Z,102983.19
2022-12-01T15:10:20.587Z,102994.44
2022-12-01T15:12:47.798Z,102985.53
2022-12-01T15:15:23.940Z,102983.97
2022-12-01T15:17:52.375Z,102985.13
2022-12-01T15:20:34.642Z,102978.94
2022-12-01T15:23:08.240Z,102978.94
2022-12-01T15:25:37.029Z,102978.16
2022-12-01T15:28:10.300Z,102975.44
2022-12-01T15:30:37.083Z,102972.72
2022-12-01T15:33:04.947Z,102971.97
2022-12-01T15:35:31.528Z,102972.72
2022-12-01T15:37:58.518Z,102973.91
2022-12-01T15:43:35.225Z,102971.19
2022-12-01T15:46:12.283Z,102969.25
2022-12-01T15:48:39.650Z,102956.88
2022-12-01T15:51:28.182Z,102968.84
2022-12-01T15:53:59.758Z,102974.28
2022-12-01T15:56:31.458Z,102978.59
2022-12-01T15:59:02.926Z,102978.94
2022-12-01T16:01:30.510Z,102985.16
2022-12-01T16:04:16.212Z,102978.56
2022-12-01T16:06:43.331Z,102988.69
2022-12-01T16:09:23.785Z,102978.97
2022-12-01T16:12:09.227Z,102982.06
2022-12-01T16:14:37.045Z,102984.00
2022-12-01T16:17:05.286Z,102989.09
2022-12-01T16:19:33.683Z,102985.59
2022-12-01T16:22:12.374Z,102998.38
2022-12-01T16:24:51.570Z,102998.00
2022-12-01T16:27:22.650Z,102993.78
2022-12-01T16:30:02.596Z,102990.66
2022-12-01T16:32:37.941Z,102988.72
2022-12-01T16:35:05.952Z,102987.16
2022-12-01T16:37:32.509Z,102989.09
2022-12-01T16:39:59.065Z,102991.06
2022-12-01T16:42:25.543Z,102990.28
2022-12-01T16:44:52.729Z,102986.44
2022-12-01T16:47:22.839Z,102980.28
2022-12-01T16:49:49.991Z,102985.00
2022-12-01T16:55:03.931Z,102984.28
2022-12-01T16:57:30.412Z,102978.88
2022-12-01T16:59:56.854Z,102981.59
2022-12-01T17:02:23.332Z,102982.75
2022-12-01T17:04:50.067Z,102975.78
2022-12-01T17:07:16.790Z,102987.75
2022-12-01T17:09:43.292Z,102987.00
2022-12-01T17:12:09.805Z,102983.09
2022-12-01T17:14:36.232Z,102983.09
2022-12-01T17:17:02.681Z,102987.38
2022-12-01T17:19:29.100Z,102984.66
2022-12-01T17:21:56.896Z,102988.53
2022-12-01T17:24:23.440Z,102989.31
2022-12-01T17:26:49.953Z,102987.41
2022-12-01T17:29:16.394Z,102992.06
2022-12-01T17:31:42.867Z,102987.00
2022-12-01T17:34:09.891Z,102993.22
2022-12-01T17:36:36.588Z,102992.06
2022-12-01T17:39:03.114Z,102994.78
2022-12-01T17:41:35.542Z,102993.22
2022-12-01T17:44:04.222Z,102991.28
2022-12-01T17:46:31.359Z,102988.16
2022-12-01T17:48:58.630Z,102991.63
2022-12-01T17:51:25.103Z,102997.03
2022-12-01T17:53:53.455Z,102991.22
2022-12-01T17:56:19.939Z,102998.94
2022-12-01T17:58:46.476Z,102999.31
2022-12-01T18:01:18.842Z,102989.25
2022-12-01T18:03:45.581Z,102998.53
2022-12-01T18:06:12.218Z,102995.41
2022-12-01T18:08:39.864Z,103000.03
2022-12-01T18:11:09.882Z,102993.81
2022-12-01T18:13:41.590Z,103004.63
2022-12-01T18:16:10.152Z,102997.69
2022-12-01T18:18:37.966Z,103004.25
2022-12-01T18:21:08.857Z,103003.47
2022-12-01T18:23:35.774Z,103003.88
2022-12-01T18:26:05.163Z,102996.50
2022-12-01T18:28:32.309Z,102993.78
2022-12-01T18:31:06.984Z,102983.66
2022-12-01T18:33:34.618Z,102989.09
2022-12-01T18:36:01.238Z,102994.13
2022-12-01T18:38:28.238Z,103005.75
2022-12-01T18:40:59.058Z,102999.56
2022-12-01T18:43:26.612Z,103001.91
2022-12-01T18:45:53.222Z,103006.91
2022-12-01T18:48:19.855Z,103002.25
2022-12-01T18:50:46.320Z,103001.09
2022-12-01T18:53:12.825Z,103002.25
2022-12-01T18:55:39.378Z,103001.09
2022-12-01T18:58:06.488Z,103004.97
2022-12-01T19:00:33.385Z,103004.22
2022-12-01T19:02:59.907Z,102997.19
2022-12-01T19:05:26.571Z,103000.69
2022-12-01T19:07:54.119Z,103007.69
2022-12-01T19:10:21.029Z,103009.22
2022-12-01T19:12:47.553Z,103007.28
2022-12-01T19:15:14.073Z,103005.72
2022-12-01T19:17:40.555Z,103004.53
2022-12-01T19:20:07.765Z,103005.72
2022-12-01T19:22:34.213Z,103007.66
2022-12-01T19:25:00.692Z,103004.53
2022-12-01T19:27:28.666Z,103003.75
2022-12-01T19:29:55.162Z,103013.47
2022-12-01T19:32:21.752Z,103014.63
2022-12-01T19:34:48.672Z,103009.97
2022-12-01T19:37:15.435Z,103011.91
2022-12-01T19:39:42.045Z,103016.59
2022-12-01T19:42:08.570Z,103011.91
2022-12-01T19:44:35.046Z,103007.66
2022-12-01T19:47:03.668Z,103010.34
2022-12-01T19:49:30.333Z,103016.59
2022-12-01T19:51:56.895Z,103014.25
2022-12-01T19:54:23.423Z,103015.78
2022-12-01T19:56:50.705Z,103019.69
2022-12-01T19:59:17.208Z,103015.78
2022-12-01T20:01:43.921Z,103016.97
2022-12-01T20:04:10.580Z,103015.41
2022-12-01T20:06:38.062Z,103013.47
2022-12-01T20:09:06.711Z,103008.44
2022-12-01T20:11:35.277Z,103006.50
2022-12-01T20:14:04.054Z,103006.13
2022-12-01T20:16:30.846Z,103017.34
2022-12-01T20:19:00.503Z,103018.13
2022-12-01T20:21:29.947Z,103015.41
2022-12-01T20:23:59.088Z,103018.13
2022-12-01T20:26:30.729Z,103011.94
2022-12-01T20:29:09.622Z,103013.88
2022-12-01T20:31:37.626Z,103004.97
2022-12-01T20:34:12.472Z,103008.44
2022-12-01T20:36:40.501Z,103013.13
2022-12-01T20:39:07.824Z,103001.50
2022-12-01T20:41:35.121Z,103006.13
2022-12-01T20:44:06.991Z,103003.41
2022-12-01T20:46:35.372Z,102999.56
2022-12-01T20:49:02.090Z,102999.56
2022-12-01T20:51:28.666Z,102998.34
2022-12-01T20:54:26.316Z,103000.28
2022-12-01T20:56:41.700Z,102993.34
2022-12-01T20:59:08.194Z,103000.28
2022-12-01T21:01:34.879Z,103000.28
2022-12-01T21:04:01.377Z,103001.50
2022-12-01T21:06:29.150Z,103012.34
2022-12-01T21:08:55.857Z,103007.69
2022-12-01T21:11:51.262Z,103002.25
2022-12-01T21:14:42.714Z,103001.84
2022-12-01T21:17:25.089Z,102996.84
2022-12-01T21:20:01.795Z,103000.69
2022-12-01T21:22:28.482Z,102998.38
2022-12-01T21:25:06.270Z,103002.63
2022-12-01T21:27:32.702Z,102999.91
2022-12-01T21:29:59.184Z,102991.00
2022-12-01T21:32:30.645Z,102992.91
2022-12-01T21:35:02.597Z,103001.06
2022-12-01T21:37:29.158Z,102982.84
2022-12-01T21:39:56.785Z,102987.91
2022-12-01T21:42:27.160Z,102992.16
2022-12-01T21:44:55.682Z,102989.06
2022-12-01T21:47:25.867Z,102997.56
2022-12-01T21:49:54.376Z,102982.84
2022-12-01T21:52:23.606Z,102987.13
2022-12-01T21:54:51.464Z,102984.41
2022-12-01T21:57:32.227Z,102986.72
2022-12-01T22:00:29.007Z,102988.69
2022-12-01T22:03:07.890Z,102991.41
2022-12-01T22:05:40.521Z,102983.63
2022-12-01T22:08:25.592Z,102976.66
2022-12-01T22:10:55.260Z,102980.91
2022-12-01T22:13:25.146Z,102980.53
2022-12-01T22:15:54.364Z,102979.34
2022-12-01T22:18:29.855Z,102972.00
2022-12-01T22:20:56.545Z,102975.47
2022-12-01T22:23:32.284Z,102967.34
2022-12-01T22:25:58.758Z,102970.88
2022-12-01T22:28:25.681Z,102975.09
2022-12-01T22:30:52.365Z,102969.66
2022-12-01T22:33:24.544Z,102970.88
2022-12-01T22:35:52.811Z,102970.47
2022-12-01T22:38:21.418Z,102968.91
2022-12-01T22:40:51.980Z,102961.19
2022-12-01T22:43:18.386Z,102963.94
2022-12-01T22:45:50.583Z,102961.59
2022-12-01T22:48:42.066Z,102965.84
2022-12-01T22:51:14.529Z,102966.28
2022-12-01T22:53:42.139Z,102960.47
2022-12-01T22:56:30.279Z,102964.38
2022-12-01T22:58:56.979Z,102967.88
2022-12-01T23:01:27.636Z,102970.59
2022-12-01T23:04:12.531Z,102964.41
2022-12-01T23:06:52.448Z,102962.50
2022-12-01T23:09:21.383Z,102961.34
2022-12-01T23:12:11.691Z,102962.53
2022-12-01T23:15:27.148Z,102961.78
2022-12-01T23:17:54.227Z,102968.38
2022-12-01T23:20:20.633Z,102968.41
2022-12-01T23:22:47.650Z,102961.03
2022-12-01T23:25:19.378Z,102966.47
2022-12-01T23:27:51.031Z,102952.94
2022-12-01T23:30:19.763Z,102950.97
2022-12-01T23:33:03.969Z,102956.81
2022-12-01T23:35:34.722Z,102953.72
2022-12-01T23:38:01.168Z,102947.53
2022-12-01T23:40:33.514Z,102952.19
2022-12-01T23:43:11.642Z,102948.28
2022-12-01T23:45:38.118Z,102946.38
2022-12-01T23:48:10.966Z,102952.97
2022-12-01T23:50:37.610Z,102948.31
2022-12-01T23:53:04.071Z,102942.91
2022-12-01T23:55:31.317Z,102949.88
2022-12-01T23:57:58.784Z,102945.22
